EDHI 200050Z AUTO 27010KT 6000 // BKN009/// BKN025/// BKN031/// 16/16 Q1018 EDHI 200020Z AUTO 28010KT 8000 // BKN009/// 17/16 Q1018 EDHI 192350Z AUTO 27014KT 9999 // SCT012/// SCT036/// 17/17 Q1018 EDHI 192320Z AUTO 25010KT 7000 // BKN015/// BKN026/// BKN036/// 18/17 Q1018 EDHI 192250Z AUTO 25007KT 6000 // FEW007/// SCT028/// 17/17 Q1018 EDHI 192220Z AUTO 25006KT 6000 // FEW008/// BKN027/// 18/18 Q1018 EDHI 192150Z AUTO 23007KT 6000 // SCT007/// BKN009/// OVC027/// 18/18 Q1018 EDHI 192120Z AUTO 24006KT 9000 // SCT008/// BKN010/// OVC028/// 18/18 Q1017 EDHI 192050Z AUTO 24007KT 7000 // OVC008/// 18/18 Q1017 EDHI 192020Z AUTO 25007KT 5000 // SCT006/// OVC012/// 18/18 Q1017 EDHI 191950Z AUTO 24005KT 5000 // BKN008/// 18/18 Q1017 EDHI 191920Z AUTO 20005KT 4800 1800 // FEW008/// 18/18 Q1016 EDHI 191850Z AUTO 16003KT 110V210 4500 // SCT250/// 17/17 Q1016 EDHI 191820Z 15003KT 100V240 6000 NSC 18/17 Q1015 EDHI 191750Z 05006KT 9999 -SHRA FEW023 18/18 Q1014 EDHI 191720Z 32007KT 280V030 7000 -TSRA FEW009 SCT024CB 18/18 Q1016 RETS EDHI 191650Z 29021KT 7000 -TSRA FEW015 SCT024CB 19/18 Q1017 RETS EDHI 191620Z 28014KT 8000 -TSRA FEW030CB 22/18 Q1016 RETS EDHI 191550Z 26010KT 230V290 9999 -SHRA NSC 25/18 Q1015 EDHI 191520Z 23008KT 200V260 CAVOK 27/12 Q1014 EDHI 191450Z 20006KT 180V260 CAVOK 29/12 Q1014 EDHI 191420Z 19005KT 140V280 CAVOK 28/15 Q1015 EDHI 191350Z 27004KT 190V350 CAVOK 28/14 Q1015 EDHI 191320Z 24005KT 150V280 CAVOK 29/13 Q1015 EDHI 191250Z VRB02KT CAVOK 28/14 Q1015 EDHI 191220Z 24004KT 180V300 CAVOK 29/14 Q1016 EDHI 191150Z 24006KT 190V290 CAVOK 27/13 Q1016 EDHI 191120Z 25009KT 230V290 CAVOK 27/14 Q1017 EDHI 191050Z 26011KT CAVOK 26/15 Q1017 EDHI 191020Z 22009KT 190V260 CAVOK 27/13 Q1017 EDHI 190950Z 23012KT CAVOK 27/13 Q1017 EDHI 190920Z 21011KT CAVOK 27/13 Q1017 EDHI 190850Z 22011KT 190V250 CAVOK 27/14 Q1018 EDHI 190820Z 21009KT 160V240 CAVOK 26/14 Q1018 EDHI 190750Z 20009KT 160V220 CAVOK 25/15 Q1018 EDHI 190720Z 20006KT 170V230 CAVOK 24/15 Q1018 EDHI 190650Z 20007KT CAVOK 23/15 Q1018 EDHI 190620Z 19003KT 090V260 CAVOK 22/16 Q1018 EDHI 190550Z VRB02KT CAVOK 21/16 Q1018 EDHI 190520Z VRB02KT CAVOK 21/15 Q1018 EDHI 190450Z VRB02KT CAVOK 19/15 Q1018 EDHI 190420Z 12003KT 090V170 CAVOK 18/14 Q1018 EDHI 190350Z 10003KT 080V140 CAVOK 18/14 Q1018 EDHI 190320Z AUTO 12003KT 100V160 9999 // FEW120/// 18/14 Q1018 EDHI 190250Z AUTO 11003KT 9999 // SCT120/// 18/14 Q1018 EDHI 190220Z AUTO 10002KT 9999 // FEW120/// 18/14 Q1018 EDHI 190150Z AUTO VRB02KT 9999 // FEW250/// 19/14 Q1018 EDHI 190120Z AUTO 13003KT 9999 // NCD 19/14 Q1018 EDHI 190050Z AUTO VRB02KT 9999 // NCD 19/14 Q1019 EDHI 190020Z AUTO VRB02KT 9999 // FEW100/// 19/14 Q1019 EDHI 182350Z AUTO 15003KT 080V220 9999 // FEW100/// 20/14 Q1019 EDHI 182320Z AUTO 16004KT 110V220 9999 // SCT096/// 21/15 Q1019 EDHI 182250Z AUTO 17004KT 130V220 9999 // NCD 21/15 Q1019 EDHI 182220Z AUTO 16005KT 100V220 9999 // NCD 22/15 Q1019 EDHI 182150Z AUTO 16004KT 120V210 9999 // NCD 22/15 Q1019 EDHI 182120Z AUTO 14007KT 110V180 9999 // SCT110/// 22/15 Q1019 EDHI 182050Z AUTO 14005KT 110V170 9999 // BKN110/// 22/16 Q1019 EDHI 182020Z AUTO 14005KT 100V180 9999 // SCT120/// 22/16 Q1019 EDHI 181950Z AUTO 14006KT 9999 // FEW089/// 22/16 Q1019 EDHI 181920Z AUTO 13005KT 090V160 9999 // BKN091/// 23/16 Q1019 EDHI 181850Z AUTO 13003KT 100V170 9999 // BKN096/// 24/16 Q1019 EDHI 181820Z AUTO 14003KT 100V190 9999 // BKN077/// 25/15 Q1019 EDHI 181750Z AUTO 18003KT 120V230 9999 // FEW078/// BKN130/// 26/14 Q1019 EDHI 181720Z 19004KT 150V230 CAVOK 27/14 Q1019 EDHI 181650Z VRB02KT CAVOK 27/13 Q1020 EDHI 181620Z VRB03KT CAVOK 27/12 Q1020 EDHI 181550Z 27003KT 220V310 CAVOK 28/13 Q1020 EDHI 181520Z VRB04KT CAVOK 27/13 Q1020 EDHI 181450Z 24006KT 180V270 CAVOK 28/13 Q1020 EDHI 181420Z 23008KT 190V260 CAVOK 28/14 Q1020 EDHI 181350Z 22006KT 160V270 CAVOK 28/14 Q1020 EDHI 181320Z 24008KT 200V270 CAVOK 28/14 Q1020

METAR Messwerte "HAMBURG/FINKENWE" EDHI

Zurück zur Übersicht

Ortsname
Ländercode / m ü. NN
Zeit Temperatur Taupunkt Rel.
Luftfeuchte
Luftdruck:
Altimeter
NN
Station
Wind in Beaufort
(Knoten)
Sichtweite
(Meter)
Wolken
(Meter über Grund)
Wettererscheinung
HAMBURG/FINKENWE
DE 5
Fr 20.05. 02:501616100 %1018
1018
1017
W 3 (10)6000Stark bewölkt (940)
Stark bewölkt (760)
Stark bewölkt (270)
 
HAMBURG/FINKENWE
DE 5
Fr 20.05. 02:20171694 %1018
1018
1017
W 3 (10)8000Stark bewölkt (270) 
HAMBURG/FINKENWE
DE 5
Fr 20.05. 01:501717100 %1018
1018
1017
W 4 (14)>= 10000Wolkig (1100)
Wolkig (370)
 
HAMBURG/FINKENWE
DE 5
Fr 20.05. 01:20181794 %1018
1018
1017
WSW 3 (10)7000Stark bewölkt (1100)
Stark bewölkt (790)
Stark bewölkt (460)
 
HAMBURG/FINKENWE
DE 5
Fr 20.05. 00:501717100 %1018
1018
1017
WSW 3 (7)6000Wolkig (850)
Leicht bewölkt (210)
 
HAMBURG/FINKENWE
DE 5
Fr 20.05. 00:201818100 %1018
1018
1017
WSW 2 (6)6000Stark bewölkt (820)
Leicht bewölkt (240)
 
HAMBURG/FINKENWE
DE 5
Do 19.05. 23:501818100 %1018
1018
1017
SW 3 (7)6000Bedeckt (820)
Stark bewölkt (270)
Wolkig (210)
 
HAMBURG/FINKENWE
DE 5
Do 19.05. 23:201818100 %1017
1017
1016
WSW 2 (6)9000Bedeckt (850)
Stark bewölkt (300)
Wolkig (240)
 
HAMBURG/FINKENWE
DE 5
Do 19.05. 22:501818100 %1017
1017
1016
WSW 3 (7)7000Bedeckt (240) 
HAMBURG/FINKENWE
DE 5
Do 19.05. 22:201818100 %1017
1017
1016
WSW 3 (7)5000Bedeckt (370)
Wolkig (180)
 
HAMBURG/FINKENWE
DE 5
Do 19.05. 21:501818100 %1017
1017
1016
WSW 2 (5)5000Stark bewölkt (240) 
HAMBURG/FINKENWE
DE 5
Do 19.05. 21:201818100 %1016
1016
1015
SSW 2 (5)4800Leicht bewölkt (240) 
HAMBURG/FINKENWE
DE 5
Do 19.05. 20:501717100 %1016
1016
1015
SSO 2 (3)
OSO - SSW
4500Wolkig (7600) 
HAMBURG/FINKENWE
DE 5
Do 19.05. 20:20181794 %1015
1015
1014
SSO 2 (3)
O - WSW
6000Nicht signifikant 
HAMBURG/FINKENWE
DE 5
Do 19.05. 19:501818100 %1014
1014
1013
NO 2 (6)>= 10000Leicht bewölkt (700)Regen-Schauer (schwach)
HAMBURG/FINKENWE
DE 5
Do 19.05. 19:201818100 %1016
1016
1015
NW 3 (7)
W - NNO
7000Wolkig Cb (730)
Leicht bewölkt (270)
Gewitter mit Regen (schwach)
HAMBURG/FINKENWE
DE 5
Do 19.05. 18:50191894 %1017
1017
1016
WNW 6 (21)7000Wolkig Cb (730)
Leicht bewölkt (460)
Gewitter mit Regen (schwach)
HAMBURG/FINKENWE
DE 5
Do 19.05. 18:20221878 %1016
1016
1015
W 4 (14)8000Leicht bewölkt Cb (910)Gewitter mit Regen (schwach)
HAMBURG/FINKENWE
DE 5
Do 19.05. 17:50251865 %1015
1015
1014
W 3 (10)
SW - WNW
>= 10000Nicht signifikantRegen-Schauer (schwach)
HAMBURG/FINKENWE
DE 5
Do 19.05. 17:20271239 %1014
1014
1013
SW 3 (8)
SSW - W
>= 10000Nicht signifikant 
HAMBURG/FINKENWE
DE 5
Do 19.05. 16:50291235 %1014
1014
1013
SSW 2 (6)
S - W
>= 10000Nicht signifikant 
HAMBURG/FINKENWE
DE 5
Do 19.05. 16:20281545 %1015
1015
1014
S 2 (5)
SO - W
>= 10000Nicht signifikant 
HAMBURG/FINKENWE
DE 5
Do 19.05. 15:50281442 %1015
1015
1014
W 2 (4)
S - N
>= 10000Nicht signifikant 
HAMBURG/FINKENWE
DE 5
Do 19.05. 15:20291337 %1015
1015
1014
WSW 2 (5)
SSO - W
>= 10000Nicht signifikant 
HAMBURG/FINKENWE
DE 5
Do 19.05. 14:50281442 %1015
1015
1014
Uml 1 (2)>= 10000Nicht signifikant 
HAMBURG/FINKENWE
DE 5
Do 19.05. 14:20291440 %1016
1016
1015
WSW 2 (4)
S - WNW
>= 10000Nicht signifikant 
HAMBURG/FINKENWE
DE 5
Do 19.05. 13:50271342 %1016
1016
1015
WSW 2 (6)
S - WNW
>= 10000Nicht signifikant 
HAMBURG/FINKENWE
DE 5
Do 19.05. 13:20271445 %1017
1017
1016
WSW 3 (9)
SW - WNW
>= 10000Nicht signifikant 
HAMBURG/FINKENWE
DE 5
Do 19.05. 12:50261551 %1017
1017
1016
W 4 (11)>= 10000Nicht signifikant 
HAMBURG/FINKENWE
DE 5
Do 19.05. 12:20271342 %1017
1017
1016
SW 3 (9)
S - W
>= 10000Nicht signifikant 
HAMBURG/FINKENWE
DE 5
Do 19.05. 11:50271342 %1017
1017
1016
SW 4 (12)>= 10000Nicht signifikant 
HAMBURG/FINKENWE
DE 5
Do 19.05. 11:20271342 %1017
1017
1016
SSW 4 (11)>= 10000Nicht signifikant 
HAMBURG/FINKENWE
DE 5
Do 19.05. 10:50271445 %1018
1018
1017
SW 4 (11)
S - WSW
>= 10000Nicht signifikant 
HAMBURG/FINKENWE
DE 5
Do 19.05. 10:20261448 %1018
1018
1017
SSW 3 (9)
SSO - WSW
>= 10000Nicht signifikant 
HAMBURG/FINKENWE
DE 5
Do 19.05. 09:50251554 %1018
1018
1017
SSW 3 (9)
SSO - SW
>= 10000Nicht signifikant 
HAMBURG/FINKENWE
DE 5
Do 19.05. 09:20241557 %1018
1018
1017
SSW 2 (6)
S - SW
>= 10000Nicht signifikant 
HAMBURG/FINKENWE
DE 5
Do 19.05. 08:50231561 %1018
1018
1017
SSW 3 (7)>= 10000Nicht signifikant 
HAMBURG/FINKENWE
DE 5
Do 19.05. 08:20221669 %1018
1018
1017
S 2 (3)
O - W
>= 10000Nicht signifikant 
HAMBURG/FINKENWE
DE 5
Do 19.05. 07:50211673 %1018
1018
1017
Uml 1 (2)>= 10000Nicht signifikant 
HAMBURG/FINKENWE
DE 5
Do 19.05. 07:20211569 %1018
1018
1017
Uml 1 (2)>= 10000Nicht signifikant 
HAMBURG/FINKENWE
DE 5
Do 19.05. 06:50191578 %1018
1018
1017
Uml 1 (2)>= 10000Nicht signifikant 
HAMBURG/FINKENWE
DE 5
Do 19.05. 06:20181477 %1018
1018
1017
OSO 2 (3)
O - S
>= 10000Nicht signifikant 
HAMBURG/FINKENWE
DE 5
Do 19.05. 05:50181477 %1018
1018
1017
O 2 (3)
O - SO
>= 10000Nicht signifikant 
HAMBURG/FINKENWE
DE 5
Do 19.05. 05:20181477 %1018
1018
1017
OSO 2 (3)
O - SSO
>= 10000Leicht bewölkt (3700) 
HAMBURG/FINKENWE
DE 5
Do 19.05. 04:50181477 %1018
1018
1017
OSO 2 (3)>= 10000Wolkig (3700) 
HAMBURG/FINKENWE
DE 5
Do 19.05. 04:20181477 %1018
1018
1017
O 1 (2)>= 10000Leicht bewölkt (3700) 
HAMBURG/FINKENWE
DE 5
Do 19.05. 03:50191473 %1018
1018
1017
Uml 1 (2)>= 10000Leicht bewölkt (7600) 
HAMBURG/FINKENWE
DE 5
Do 19.05. 03:20191473 %1018
1018
1017
SO 2 (3)>= 10000  
HAMBURG/FINKENWE
DE 5
Do 19.05. 02:50191473 %1019
1019
1018
Uml 1 (2)>= 10000  
HAMBURG/FINKENWE
DE 5
Do 19.05. 02:20191473 %1019
1019
1018
Uml 1 (2)>= 10000Leicht bewölkt (3000) 
HAMBURG/FINKENWE
DE 5
Do 19.05. 01:50201468 %1019
1019
1018
SSO 2 (3)
O - SW
>= 10000Leicht bewölkt (3000) 
HAMBURG/FINKENWE
DE 5
Do 19.05. 01:20211569 %1019
1019
1018
SSO 2 (4)
OSO - SW
>= 10000Wolkig (2900) 
HAMBURG/FINKENWE
DE 5
Do 19.05. 00:50211569 %1019
1019
1018
S 2 (4)
SO - SW
>= 10000  
HAMBURG/FINKENWE
DE 5
Do 19.05. 00:20221565 %1019
1019
1018
SSO 2 (5)
O - SW
>= 10000  
HAMBURG/FINKENWE
DE 5
Mi 18.05. 23:50221565 %1019
1019
1018
SSO 2 (4)
OSO - SSW
>= 10000  
HAMBURG/FINKENWE
DE 5
Mi 18.05. 23:20221565 %1019
1019
1018
SO 3 (7)
OSO - S
>= 10000Wolkig (3400) 
HAMBURG/FINKENWE
DE 5
Mi 18.05. 22:50221669 %1019
1019
1018
SO 2 (5)
OSO - S
>= 10000Stark bewölkt (3400) 
HAMBURG/FINKENWE
DE 5
Mi 18.05. 22:20221669 %1019
1019
1018
SO 2 (5)
O - S
>= 10000Wolkig (3700) 
HAMBURG/FINKENWE
DE 5
Mi 18.05. 21:50221669 %1019
1019
1018
SO 2 (6)>= 10000Leicht bewölkt (2700) 
HAMBURG/FINKENWE
DE 5
Mi 18.05. 21:20231665 %1019
1019
1018
SO 2 (5)
O - SSO
>= 10000Stark bewölkt (2800) 
HAMBURG/FINKENWE
DE 5
Mi 18.05. 20:50241661 %1019
1019
1018
SO 2 (3)
O - S
>= 10000Stark bewölkt (2900) 
HAMBURG/FINKENWE
DE 5
Mi 18.05. 20:20251554 %1019
1019
1018
SO 2 (3)
O - S
>= 10000Stark bewölkt (2300) 
HAMBURG/FINKENWE
DE 5
Mi 18.05. 19:50261448 %1019
1019
1018
S 2 (3)
OSO - SW
>= 10000Stark bewölkt (4000)
Leicht bewölkt (2400)
 
HAMBURG/FINKENWE
DE 5
Mi 18.05. 19:20271445 %1019
1019
1018
S 2 (4)
SSO - SW
>= 10000Nicht signifikant 
HAMBURG/FINKENWE
DE 5
Mi 18.05. 18:50271342 %1020
1020
1019
Uml 1 (2)>= 10000Nicht signifikant 
HAMBURG/FINKENWE
DE 5
Mi 18.05. 18:20271239 %1020
1020
1019
Uml 2 (3)>= 10000Nicht signifikant 
HAMBURG/FINKENWE
DE 5
Mi 18.05. 17:50281340 %1020
1020
1019
W 2 (3)
SW - NW
>= 10000Nicht signifikant 
HAMBURG/FINKENWE
DE 5
Mi 18.05. 17:20271342 %1020
1020
1019
Uml 2 (4)>= 10000Nicht signifikant 
HAMBURG/FINKENWE
DE 5
Mi 18.05. 16:50281340 %1020
1020
1019
WSW 2 (6)
S - W
>= 10000Nicht signifikant 
HAMBURG/FINKENWE
DE 5
Mi 18.05. 16:20281442 %1020
1020
1019
SW 3 (8)
S - W
>= 10000Nicht signifikant 
HAMBURG/FINKENWE
DE 5
Mi 18.05. 15:50281442 %1020
1020
1019
SW 2 (6)
SSO - W
>= 10000Nicht signifikant 
HAMBURG/FINKENWE
DE 5
Mi 18.05. 15:20281442 %1020
1020
1019
WSW 3 (8)
SSW - W
>= 10000Nicht signifikant 

Altimeter: Einstellung am Altimeter (Höhenmesser), die Höhe 0 muss auf diesen Luftdruckwert zeigen, damit das Gerät die Stationshöhe richtig anzeigt.

NN: Luftdruck reduziert auf "Normal Null", auf Meereshöhe, dieser von der Temperatur abhängige Wert wird bisweilen unkorrekt einfach als "Luftdruck" bezeichnet. Eigentlich nur eine fiktive Größe, die es erlaubt, Stationen auf unterschiedlichen Höhen miteinander zu vergleichen.

Station: Realer Luftdruck an der Station.